Aeroporto :
LOGIN :

Iscrizione | Disclaimer

   EN    FR    IT 

 










Sommario :    VFR   VFR Marginale   IFR   IFR Intensivo   IFR Molto Intensivo
Visibilità : 
Base nubi : 
>= 8 km
>= 3000ft
5 / 8 km
1000 / 3000 ft
1500m / 5 km
500 / 1000 ft
800 / 1500m
200 / 500 ft
< 800m
< 200 ft
Simboli :   Temporali  Nebbia  Neve Forte  Precipitazioni Forti  Vento > 20 kt
SIGMETs :   Varie  Temporali  Ghiacco  Turbolenza  Onda orograficha  Ceneri Vulcaniche






- Altitudine del aeroporto : 297 ft


EGVP - Middle Wallop

ULTIMO METAR :
  • 241120Z 23017G27KT 4500 -RADZ BKN009 OVC016 10/09 Q1008 TEMPO 8000 RMK GRN TEMPO GRN

METARs OBSOLETI :
  • 241050Z 23016KT 4500 -RA BKN010 OVC018 10/09 Q1009 TEMPO 8000 RMK GRN TEMPO GRN
  • 241035Z 23020G32KT 6000 -RA BKN010 OVC018 10/09 Q1009 TEMPO 4000 RMK GRN TEMPO GRN
  • 241020Z 23020G32KT 9999 -RA BKN010 OVC017 10/09 Q1009 TEMPO 4000 RMK GRN TEMPO GRN
  • 240950Z 23020G33KT 9999 BKN010 OVC015 10/09 Q1009 TEMPO 4000 -RA RMK GRN TEMPO GRN
  • 240920Z 23021G32KT 4500 -RADZ BKN009 OVC016 10/09 Q1010 TEMPO 7000 RMK GRN TEMPO GRN
  • 240912Z 23018KT 4000 -DZ OVC009 10/09 Q1010 TEMPO 7000 RMK GRN TEMPO GRN
  • 240850Z 23019G30KT 9999 BKN011 OVC018 11/09 Q1010 TEMPO 7000 -RADZ RMK GRN TEMPO GRN

TAF TAF EGVP
Valido dal 24 a 12 ore il 24 a 21 ore UTC


241054Z 2412/2421 23020G33KT 9999 BKN009
TEMPO 2412/2416 3500 RA
PROB30
TEMPO 2414/2416 RADZ SCT006
BECMG 2415/2417 25014KT SCT025
TEMPO 2417/2420 25015G25KT
ATIS : +44 1980 674 142



MetMap, La meteo Aeronautica in un colpo d'occhio ! - Copyright ORBIFLY Dicembre 2007 - Disclaimer

ORBIFLY MET'MAP TEAM :

Programmazione e sviluppo : Alexandra Zaïnal
Concezione : Baudouin d'Aumeries
Aiuto per la programmazione : Marc-Olivier Méhu
Supporto tecnico e logistico : Manuel Goepfert
Aiuto per la traduzione : Arnaldo La Scala

Contatto : metmap@orbifly.com




FONTI E CREDITI :

   NOAA